sensor_id;sensor_type;location;lat;lon;timestamp;temperature;humidity
8422;DHT22;4248;48.196;10.924;2022-12-24T00:01:56;11.30;78.20
8422;DHT22;4248;48.196;10.924;2022-12-24T00:04:21;11.30;78.20
8422;DHT22;4248;48.196;10.924;2022-12-24T00:06:47;11.40;78.20
8422;DHT22;4248;48.196;10.924;2022-12-24T00:09:12;11.30;78.20
8422;DHT22;4248;48.196;10.924;2022-12-24T00:11:38;11.30;78.20
8422;DHT22;4248;48.196;10.924;2022-12-24T00:14:04;11.30;78.20
8422;DHT22;4248;48.196;10.924;2022-12-24T00:16:29;11.30;78.20
8422;DHT22;4248;48.196;10.924;2022-12-24T00:18:55;11.30;77.80
8422;DHT22;4248;48.196;10.924;2022-12-24T00:21:21;11.30;77.50
8422;DHT22;4248;48.196;10.924;2022-12-24T00:23:47;11.30;77.30
8422;DHT22;4248;48.196;10.924;2022-12-24T00:26:13;11.30;77.10
8422;DHT22;4248;48.196;10.924;2022-12-24T00:28:39;11.40;77.00
8422;DHT22;4248;48.196;10.924;2022-12-24T00:31:14;11.30;76.90
8422;DHT22;4248;48.196;10.924;2022-12-24T00:33:40;11.30;76.80
8422;DHT22;4248;48.196;10.924;2022-12-24T00:36:06;11.30;76.80
8422;DHT22;4248;48.196;10.924;2022-12-24T00:38:32;11.20;76.60
8422;DHT22;4248;48.196;10.924;2022-12-24T00:40:59;11.10;76.40
8422;DHT22;4248;48.196;10.924;2022-12-24T00:43:25;11.00;76.70
8422;DHT22;4248;48.196;10.924;2022-12-24T00:45:51;11.00;77.10
8422;DHT22;4248;48.196;10.924;2022-12-24T00:48:16;10.90;77.20
8422;DHT22;4248;48.196;10.924;2022-12-24T00:50:42;10.90;77.10
8422;DHT22;4248;48.196;10.924;2022-12-24T00:53:07;10.80;77.10
8422;DHT22;4248;48.196;10.924;2022-12-24T00:55:33;10.80;76.90
8422;DHT22;4248;48.196;10.924;2022-12-24T00:57:59;10.70;76.90
8422;DHT22;4248;48.196;10.924;2022-12-24T01:00:24;10.70;77.00
8422;DHT22;4248;48.196;10.924;2022-12-24T01:02:50;10.70;78.30
8422;DHT22;4248;48.196;10.924;2022-12-24T01:05:15;10.60;77.10
8422;DHT22;4248;48.196;10.924;2022-12-24T01:07:45;10.60;77.30
8422;DHT22;4248;48.196;10.924;2022-12-24T01:10:13;10.70;77.10
8422;DHT22;4248;48.196;10.924;2022-12-24T01:12:39;10.70;75.80
8422;DHT22;4248;48.196;10.924;2022-12-24T01:15:05;10.70;76.90
8422;DHT22;4248;48.196;10.924;2022-12-24T01:17:32;10.70;76.70
8422;DHT22;4248;48.196;10.924;2022-12-24T01:19:58;10.70;76.60
8422;DHT22;4248;48.196;10.924;2022-12-24T01:24:50;10.70;75.40
8422;DHT22;4248;48.196;10.924;2022-12-24T01:27:15;10.70;76.40
8422;DHT22;4248;48.196;10.924;2022-12-24T01:29:41;10.70;76.60
8422;DHT22;4248;48.196;10.924;2022-12-24T01:32:07;10.70;76.50
8422;DHT22;4248;48.196;10.924;2022-12-24T01:34:32;10.70;76.50
8422;DHT22;4248;48.196;10.924;2022-12-24T01:36:58;10.70;76.50
8422;DHT22;4248;48.196;10.924;2022-12-24T01:39:23;10.70;76.50
8422;DHT22;4248;48.196;10.924;2022-12-24T01:41:49;10.70;76.40
8422;DHT22;4248;48.196;10.924;2022-12-24T01:44:37;10.70;76.20
8422;DHT22;4248;48.196;10.924;2022-12-24T01:47:26;10.70;76.10
8422;DHT22;4248;48.196;10.924;2022-12-24T01:49:54;10.70;76.10
8422;DHT22;4248;48.196;10.924;2022-12-24T01:52:26;10.70;76.00
8422;DHT22;4248;48.196;10.924;2022-12-24T01:55:09;10.70;76.20
8422;DHT22;4248;48.196;10.924;2022-12-24T01:57:46;10.70;76.00
8422;DHT22;4248;48.196;10.924;2022-12-24T02:00:14;10.70;76.10
8422;DHT22;4248;48.196;10.924;2022-12-24T02:02:42;10.70;75.40
8422;DHT22;4248;48.196;10.924;2022-12-24T02:05:23;10.70;76.40
8422;DHT22;4248;48.196;10.924;2022-12-24T02:07:51;10.60;76.40
8422;DHT22;4248;48.196;10.924;2022-12-24T02:10:17;10.60;76.40
8422;DHT22;4248;48.196;10.924;2022-12-24T02:12:44;10.60;75.50
8422;DHT22;4248;48.196;10.924;2022-12-24T02:15:12;10.60;76.60
8422;DHT22;4248;48.196;10.924;2022-12-24T02:20:39;10.50;76.40
8422;DHT22;4248;48.196;10.924;2022-12-24T02:31:26;10.40;76.40
8422;DHT22;4248;48.196;10.924;2022-12-24T02:34:02;10.40;76.50
8422;DHT22;4248;48.196;10.924;2022-12-24T02:36:34;10.40;76.60
8422;DHT22;4248;48.196;10.924;2022-12-24T02:39:37;10.40;76.50
8422;DHT22;4248;48.196;10.924;2022-12-24T02:41:56;10.40;76.30
8422;DHT22;4248;48.196;10.924;2022-12-24T02:44:56;10.30;76.20
8422;DHT22;4248;48.196;10.924;2022-12-24T02:47:25;10.30;75.90
8422;DHT22;4248;48.196;10.924;2022-12-24T02:49:51;10.30;75.90
8422;DHT22;4248;48.196;10.924;2022-12-24T02:52:47;10.30;75.80
8422;DHT22;4248;48.196;10.924;2022-12-24T02:58:13;10.30;75.70
8422;DHT22;4248;48.196;10.924;2022-12-24T03:03:54;10.30;75.60
8422;DHT22;4248;48.196;10.924;2022-12-24T03:06:42;10.30;75.30
8422;DHT22;4248;48.196;10.924;2022-12-24T03:11:48;10.30;75.20
8422;DHT22;4248;48.196;10.924;2022-12-24T03:14:15;10.30;75.20
8422;DHT22;4248;48.196;10.924;2022-12-24T03:16:42;10.30;75.10
8422;DHT22;4248;48.196;10.924;2022-12-24T03:19:09;10.30;75.00
8422;DHT22;4248;48.196;10.924;2022-12-24T03:21:37;10.30;74.90
8422;DHT22;4248;48.196;10.924;2022-12-24T03:24:04;10.40;74.90
8422;DHT22;4248;48.196;10.924;2022-12-24T03:26:31;10.40;74.80
8422;DHT22;4248;48.196;10.924;2022-12-24T03:28:57;10.40;74.80
8422;DHT22;4248;48.196;10.924;2022-12-24T03:31:23;10.40;74.70
8422;DHT22;4248;48.196;10.924;2022-12-24T03:33:49;10.40;74.70
8422;DHT22;4248;48.196;10.924;2022-12-24T03:36:15;10.40;74.50
8422;DHT22;4248;48.196;10.924;2022-12-24T03:38:41;10.40;74.50
8422;DHT22;4248;48.196;10.924;2022-12-24T03:41:06;10.40;74.50
8422;DHT22;4248;48.196;10.924;2022-12-24T03:43:32;10.40;74.50
8422;DHT22;4248;48.196;10.924;2022-12-24T03:46:03;10.50;74.40
8422;DHT22;4248;48.196;10.924;2022-12-24T03:48:28;10.50;74.20
8422;DHT22;4248;48.196;10.924;2022-12-24T03:50:54;10.50;74.30
8422;DHT22;4248;48.196;10.924;2022-12-24T03:53:20;10.50;74.30
8422;DHT22;4248;48.196;10.924;2022-12-24T03:55:46;10.50;74.30
8422;DHT22;4248;48.196;10.924;2022-12-24T03:58:11;10.50;74.30
8422;DHT22;4248;48.196;10.924;2022-12-24T04:00:37;10.50;74.30
8422;DHT22;4248;48.196;10.924;2022-12-24T04:03:03;10.50;74.40
8422;DHT22;4248;48.196;10.924;2022-12-24T04:05:28;10.50;74.30
8422;DHT22;4248;48.196;10.924;2022-12-24T04:07:54;10.40;74.20
8422;DHT22;4248;48.196;10.924;2022-12-24T04:10:19;10.40;74.20
8422;DHT22;4248;48.196;10.924;2022-12-24T04:12:45;10.40;74.30
8422;DHT22;4248;48.196;10.924;2022-12-24T04:15:10;10.40;74.20
8422;DHT22;4248;48.196;10.924;2022-12-24T04:17:36;10.40;74.20
8422;DHT22;4248;48.196;10.924;2022-12-24T04:20:02;10.40;74.20
8422;DHT22;4248;48.196;10.924;2022-12-24T04:22:28;10.40;73.00
8422;DHT22;4248;48.196;10.924;2022-12-24T04:24:54;10.40;74.10
8422;DHT22;4248;48.196;10.924;2022-12-24T04:27:19;10.40;74.10
8422;DHT22;4248;48.196;10.924;2022-12-24T04:29:45;10.40;74.00
8422;DHT22;4248;48.196;10.924;2022-12-24T04:32:10;10.40;73.90
8422;DHT22;4248;48.196;10.924;2022-12-24T04:34:36;10.40;73.80
8422;DHT22;4248;48.196;10.924;2022-12-24T04:37:02;10.40;73.90
8422;DHT22;4248;48.196;10.924;2022-12-24T04:39:28;10.40;73.80
8422;DHT22;4248;48.196;10.924;2022-12-24T04:41:53;10.40;73.90
8422;DHT22;4248;48.196;10.924;2022-12-24T04:44:19;10.40;73.80
8422;DHT22;4248;48.196;10.924;2022-12-24T04:46:45;10.40;73.70
8422;DHT22;4248;48.196;10.924;2022-12-24T04:49:10;10.40;73.60
8422;DHT22;4248;48.196;10.924;2022-12-24T04:51:36;10.40;73.60
8422;DHT22;4248;48.196;10.924;2022-12-24T04:54:02;10.40;73.60
8422;DHT22;4248;48.196;10.924;2022-12-24T04:56:30;10.40;73.60
8422;DHT22;4248;48.196;10.924;2022-12-24T04:58:58;10.40;73.50
8422;DHT22;4248;48.196;10.924;2022-12-24T05:01:26;10.40;73.30
8422;DHT22;4248;48.196;10.924;2022-12-24T05:03:52;10.40;73.30
8422;DHT22;4248;48.196;10.924;2022-12-24T05:06:24;10.40;73.30
8422;DHT22;4248;48.196;10.924;2022-12-24T05:08:53;10.40;73.30
8422;DHT22;4248;48.196;10.924;2022-12-24T05:11:20;10.40;73.20
8422;DHT22;4248;48.196;10.924;2022-12-24T05:13:45;10.30;73.20
8422;DHT22;4248;48.196;10.924;2022-12-24T05:16:12;10.40;73.20
8422;DHT22;4248;48.196;10.924;2022-12-24T05:18:39;10.40;73.10
8422;DHT22;4248;48.196;10.924;2022-12-24T05:21:13;10.40;73.00
8422;DHT22;4248;48.196;10.924;2022-12-24T05:23:39;10.40;72.90
8422;DHT22;4248;48.196;10.924;2022-12-24T05:27:02;10.30;72.70
8422;DHT22;4248;48.196;10.924;2022-12-24T05:29:27;10.30;72.70
8422;DHT22;4248;48.196;10.924;2022-12-24T05:31:53;10.40;72.80
8422;DHT22;4248;48.196;10.924;2022-12-24T05:34:19;10.30;73.70
8422;DHT22;4248;48.196;10.924;2022-12-24T05:36:44;10.30;72.40
8422;DHT22;4248;48.196;10.924;2022-12-24T05:39:19;10.30;72.40
8422;DHT22;4248;48.196;10.924;2022-12-24T05:41:45;10.30;72.40
8422;DHT22;4248;48.196;10.924;2022-12-24T05:44:10;10.30;72.50
8422;DHT22;4248;48.196;10.924;2022-12-24T05:46:36;10.30;72.40
8422;DHT22;4248;48.196;10.924;2022-12-24T05:49:02;10.30;72.30
8422;DHT22;4248;48.196;10.924;2022-12-24T05:51:27;10.40;72.30
8422;DHT22;4248;48.196;10.924;2022-12-24T05:53:53;10.30;72.10
8422;DHT22;4248;48.196;10.924;2022-12-24T05:56:21;10.30;72.10
8422;DHT22;4248;48.196;10.924;2022-12-24T05:58:48;10.30;72.10
8422;DHT22;4248;48.196;10.924;2022-12-24T06:01:14;10.30;71.80
8422;DHT22;4248;48.196;10.924;2022-12-24T06:03:40;10.40;71.80
8422;DHT22;4248;48.196;10.924;2022-12-24T06:06:12;10.30;71.70
8422;DHT22;4248;48.196;10.924;2022-12-24T06:08:38;10.30;71.70
8422;DHT22;4248;48.196;10.924;2022-12-24T06:11:07;10.30;71.60
8422;DHT22;4248;48.196;10.924;2022-12-24T06:13:33;10.30;71.50
8422;DHT22;4248;48.196;10.924;2022-12-24T06:16:01;10.30;71.50
8422;DHT22;4248;48.196;10.924;2022-12-24T06:18:32;10.30;71.40
8422;DHT22;4248;48.196;10.924;2022-12-24T06:20:58;10.30;71.30
8422;DHT22;4248;48.196;10.924;2022-12-24T06:23:25;10.30;71.40
8422;DHT22;4248;48.196;10.924;2022-12-24T06:25:51;10.30;71.40
8422;DHT22;4248;48.196;10.924;2022-12-24T06:28:17;10.30;71.50
8422;DHT22;4248;48.196;10.924;2022-12-24T06:30:47;10.20;71.40
8422;DHT22;4248;48.196;10.924;2022-12-24T06:33:14;10.20;71.50
8422;DHT22;4248;48.196;10.924;2022-12-24T06:35:39;10.20;71.50
8422;DHT22;4248;48.196;10.924;2022-12-24T06:38:06;10.20;71.40
8422;DHT22;4248;48.196;10.924;2022-12-24T06:40:31;10.20;71.40
8422;DHT22;4248;48.196;10.924;2022-12-24T06:42:57;10.30;71.60
8422;DHT22;4248;48.196;10.924;2022-12-24T06:45:22;10.20;71.50
8422;DHT22;4248;48.196;10.924;2022-12-24T06:47:48;10.20;71.50
8422;DHT22;4248;48.196;10.924;2022-12-24T06:50:14;10.10;71.50
8422;DHT22;4248;48.196;10.924;2022-12-24T06:52:39;10.10;70.50
8422;DHT22;4248;48.196;10.924;2022-12-24T06:55:05;10.10;71.60
8422;DHT22;4248;48.196;10.924;2022-12-24T06:57:31;10.10;71.60
8422;DHT22;4248;48.196;10.924;2022-12-24T06:59:57;10.10;71.70
8422;DHT22;4248;48.196;10.924;2022-12-24T07:02:23;10.10;71.70
8422;DHT22;4248;48.196;10.924;2022-12-24T07:04:49;10.10;71.70
8422;DHT22;4248;48.196;10.924;2022-12-24T07:07:14;10.10;71.70
8422;DHT22;4248;48.196;10.924;2022-12-24T07:09:40;10.10;71.80
8422;DHT22;4248;48.196;10.924;2022-12-24T07:12:06;10.10;71.90
8422;DHT22;4248;48.196;10.924;2022-12-24T07:14:32;10.00;71.80
8422;DHT22;4248;48.196;10.924;2022-12-24T07:16:57;10.00;71.90
8422;DHT22;4248;48.196;10.924;2022-12-24T07:19:23;10.00;71.90
8422;DHT22;4248;48.196;10.924;2022-12-24T07:21:49;10.00;71.80
8422;DHT22;4248;48.196;10.924;2022-12-24T07:24:15;10.00;71.80
8422;DHT22;4248;48.196;10.924;2022-12-24T07:26:40;10.00;71.70
8422;DHT22;4248;48.196;10.924;2022-12-24T07:29:06;10.00;72.90
8422;DHT22;4248;48.196;10.924;2022-12-24T07:31:32;10.00;71.60
8422;DHT22;4248;48.196;10.924;2022-12-24T07:33:58;10.00;71.60
8422;DHT22;4248;48.196;10.924;2022-12-24T07:36:24;10.10;71.50
8422;DHT22;4248;48.196;10.924;2022-12-24T07:38:49;10.10;71.50
8422;DHT22;4248;48.196;10.924;2022-12-24T07:41:16;10.10;71.40
8422;DHT22;4248;48.196;10.924;2022-12-24T07:43:42;10.10;71.20
8422;DHT22;4248;48.196;10.924;2022-12-24T07:46:08;10.10;71.10
8422;DHT22;4248;48.196;10.924;2022-12-24T07:48:33;10.10;71.00
8422;DHT22;4248;48.196;10.924;2022-12-24T07:50:59;10.10;70.70
8422;DHT22;4248;48.196;10.924;2022-12-24T07:53:26;10.20;70.80
8422;DHT22;4248;48.196;10.924;2022-12-24T07:55:52;10.10;70.70
8422;DHT22;4248;48.196;10.924;2022-12-24T07:58:18;10.10;70.70
8422;DHT22;4248;48.196;10.924;2022-12-24T08:00:44;10.10;70.50
8422;DHT22;4248;48.196;10.924;2022-12-24T08:03:19;10.10;70.50
8422;DHT22;4248;48.196;10.924;2022-12-24T08:05:45;10.10;70.40
8422;DHT22;4248;48.196;10.924;2022-12-24T08:08:11;10.20;70.50
8422;DHT22;4248;48.196;10.924;2022-12-24T08:10:41;10.20;70.20
8422;DHT22;4248;48.196;10.924;2022-12-24T08:13:07;10.30;70.00
8422;DHT22;4248;48.196;10.924;2022-12-24T08:15:33;10.30;69.80
8422;DHT22;4248;48.196;10.924;2022-12-24T08:17:58;10.30;69.70
8422;DHT22;4248;48.196;10.924;2022-12-24T08:20:24;10.30;69.80
8422;DHT22;4248;48.196;10.924;2022-12-24T08:22:50;10.30;69.60
8422;DHT22;4248;48.196;10.924;2022-12-24T08:25:17;10.30;69.50
8422;DHT22;4248;48.196;10.924;2022-12-24T08:27:42;10.30;69.70
8422;DHT22;4248;48.196;10.924;2022-12-24T08:30:08;10.30;69.60
8422;DHT22;4248;48.196;10.924;2022-12-24T08:32:34;10.30;69.40
8422;DHT22;4248;48.196;10.924;2022-12-24T08:35:00;10.30;69.40
8422;DHT22;4248;48.196;10.924;2022-12-24T08:37:25;10.30;69.10
8422;DHT22;4248;48.196;10.924;2022-12-24T08:39:51;10.40;69.10
8422;DHT22;4248;48.196;10.924;2022-12-24T08:42:19;10.40;68.80
8422;DHT22;4248;48.196;10.924;2022-12-24T08:44:45;10.40;68.70
8422;DHT22;4248;48.196;10.924;2022-12-24T08:47:10;10.50;68.60
8422;DHT22;4248;48.196;10.924;2022-12-24T08:49:36;10.50;68.60
8422;DHT22;4248;48.196;10.924;2022-12-24T08:52:02;10.50;68.40
8422;DHT22;4248;48.196;10.924;2022-12-24T08:54:28;10.50;68.30
8422;DHT22;4248;48.196;10.924;2022-12-24T08:56:53;10.60;68.20
8422;DHT22;4248;48.196;10.924;2022-12-24T08:59:19;10.70;68.10
8422;DHT22;4248;48.196;10.924;2022-12-24T09:01:44;10.70;67.90
8422;DHT22;4248;48.196;10.924;2022-12-24T09:04:10;10.70;68.10
8422;DHT22;4248;48.196;10.924;2022-12-24T09:06:36;10.70;67.90
8422;DHT22;4248;48.196;10.924;2022-12-24T09:09:02;10.70;67.80
8422;DHT22;4248;48.196;10.924;2022-12-24T09:11:28;10.80;67.70
8422;DHT22;4248;48.196;10.924;2022-12-24T09:13:54;10.80;67.40
8422;DHT22;4248;48.196;10.924;2022-12-24T09:16:20;10.90;67.40
8422;DHT22;4248;48.196;10.924;2022-12-24T09:18:45;10.90;67.10
8422;DHT22;4248;48.196;10.924;2022-12-24T09:21:14;10.90;66.80
8422;DHT22;4248;48.196;10.924;2022-12-24T09:23:41;10.90;66.70
8422;DHT22;4248;48.196;10.924;2022-12-24T09:26:08;10.90;66.70
8422;DHT22;4248;48.196;10.924;2022-12-24T09:28:34;10.90;66.40
8422;DHT22;4248;48.196;10.924;2022-12-24T09:31:02;10.90;66.50
8422;DHT22;4248;48.196;10.924;2022-12-24T09:33:29;10.90;66.40
8422;DHT22;4248;48.196;10.924;2022-12-24T09:35:55;10.90;66.30
8422;DHT22;4248;48.196;10.924;2022-12-24T09:38:21;10.80;66.10
8422;DHT22;4248;48.196;10.924;2022-12-24T09:40:48;10.80;65.90
8422;DHT22;4248;48.196;10.924;2022-12-24T09:43:20;10.90;65.80
8422;DHT22;4248;48.196;10.924;2022-12-24T09:48:23;10.90;65.30
8422;DHT22;4248;48.196;10.924;2022-12-24T09:51:01;10.90;65.30
8422;DHT22;4248;48.196;10.924;2022-12-24T09:54:10;11.00;65.30
8422;DHT22;4248;48.196;10.924;2022-12-24T09:56:40;11.00;66.50
8422;DHT22;4248;48.196;10.924;2022-12-24T09:59:15;11.00;65.30
8422;DHT22;4248;48.196;10.924;2022-12-24T10:01:41;11.00;65.30
8422;DHT22;4248;48.196;10.924;2022-12-24T10:04:13;10.90;65.30
8422;DHT22;4248;48.196;10.924;2022-12-24T10:19:51;10.20;66.40
8422;DHT22;4248;48.196;10.924;2022-12-24T10:22:43;10.20;66.50
8422;DHT22;4248;48.196;10.924;2022-12-24T10:25:22;10.10;67.60
8422;DHT22;4248;48.196;10.924;2022-12-24T10:27:50;10.10;66.60
8422;DHT22;4248;48.196;10.924;2022-12-24T10:30:21;10.00;66.40
8422;DHT22;4248;48.196;10.924;2022-12-24T10:32:49;10.00;66.20
8422;DHT22;4248;48.196;10.924;2022-12-24T10:37:43;10.10;66.00
8422;DHT22;4248;48.196;10.924;2022-12-24T10:40:42;10.20;65.80
8422;DHT22;4248;48.196;10.924;2022-12-24T10:43:29;10.20;65.70
8422;DHT22;4248;48.196;10.924;2022-12-24T10:45:55;10.10;65.90
8422;DHT22;4248;48.196;10.924;2022-12-24T10:48:35;10.00;66.10
8422;DHT22;4248;48.196;10.924;2022-12-24T10:51:12;10.00;66.10
8422;DHT22;4248;48.196;10.924;2022-12-24T10:53:41;10.10;65.90
8422;DHT22;4248;48.196;10.924;2022-12-24T10:56:10;10.30;65.60
8422;DHT22;4248;48.196;10.924;2022-12-24T10:58:46;10.40;64.90
8422;DHT22;4248;48.196;10.924;2022-12-24T11:01:15;10.50;64.90
8422;DHT22;4248;48.196;10.924;2022-12-24T11:03:41;10.60;65.00
8422;DHT22;4248;48.196;10.924;2022-12-24T11:08:33;10.60;65.00
8422;DHT22;4248;48.196;10.924;2022-12-24T11:11:19;10.60;65.00
8422;DHT22;4248;48.196;10.924;2022-12-24T11:13:54;10.60;65.00
8422;DHT22;4248;48.196;10.924;2022-12-24T11:16:28;10.70;65.10
8422;DHT22;4248;48.196;10.924;2022-12-24T11:19:00;10.70;65.10
8422;DHT22;4248;48.196;10.924;2022-12-24T11:21:30;10.80;65.10
8422;DHT22;4248;48.196;10.924;2022-12-24T11:23:59;10.80;65.10
8422;DHT22;4248;48.196;10.924;2022-12-24T11:26:29;10.90;64.70
8422;DHT22;4248;48.196;10.924;2022-12-24T11:31:33;10.90;65.20
8422;DHT22;4248;48.196;10.924;2022-12-24T11:34:28;10.80;65.20
8422;DHT22;4248;48.196;10.924;2022-12-24T11:37:16;10.70;65.10
8422;DHT22;4248;48.196;10.924;2022-12-24T11:39:54;10.70;65.10
8422;DHT22;4248;48.196;10.924;2022-12-24T11:42:28;10.70;65.10
8422;DHT22;4248;48.196;10.924;2022-12-24T11:44:55;10.60;65.00
8422;DHT22;4248;48.196;10.924;2022-12-24T11:47:34;10.60;65.00
8422;DHT22;4248;48.196;10.924;2022-12-24T11:50:20;10.60;65.00
8422;DHT22;4248;48.196;10.924;2022-12-24T11:52:54;10.80;64.10
8422;DHT22;4248;48.196;10.924;2022-12-24T11:55:31;10.80;65.20
8422;DHT22;4248;48.196;10.924;2022-12-24T12:00:28;11.20;64.30
8422;DHT22;4248;48.196;10.924;2022-12-24T12:02:55;11.20;64.10
8422;DHT22;4248;48.196;10.924;2022-12-24T12:05:26;11.30;63.80
8422;DHT22;4248;48.196;10.924;2022-12-24T12:08:00;11.40;63.60
8422;DHT22;4248;48.196;10.924;2022-12-24T12:10:31;11.40;63.50
8422;DHT22;4248;48.196;10.924;2022-12-24T12:13:05;11.40;63.50
8422;DHT22;4248;48.196;10.924;2022-12-24T12:15:37;11.30;63.50
8422;DHT22;4248;48.196;10.924;2022-12-24T12:18:17;11.30;63.70
8422;DHT22;4248;48.196;10.924;2022-12-24T12:20:51;11.20;64.10
8422;DHT22;4248;48.196;10.924;2022-12-24T12:24:16;11.10;64.20
8422;DHT22;4248;48.196;10.924;2022-12-24T12:26:33;10.90;64.50
8422;DHT22;4248;48.196;10.924;2022-12-24T12:31:48;10.90;64.80
8422;DHT22;4248;48.196;10.924;2022-12-24T12:34:31;10.80;65.10
8422;DHT22;4248;48.196;10.924;2022-12-24T12:37:10;10.70;66.30
8422;DHT22;4248;48.196;10.924;2022-12-24T12:39:36;10.70;65.10
8422;DHT22;4248;48.196;10.924;2022-12-24T12:50:56;10.70;65.10
8422;DHT22;4248;48.196;10.924;2022-12-24T12:53:49;10.60;65.00
8422;DHT22;4248;48.196;10.924;2022-12-24T12:56:33;10.50;64.90
8422;DHT22;4248;48.196;10.924;2022-12-24T12:59:22;10.50;64.90
8422;DHT22;4248;48.196;10.924;2022-12-24T13:02:03;10.50;64.80
8422;DHT22;4248;48.196;10.924;2022-12-24T13:07:44;10.60;65.00
8422;DHT22;4248;48.196;10.924;2022-12-24T13:10:18;10.60;65.00
8422;DHT22;4248;48.196;10.924;2022-12-24T13:23:22;10.80;64.80
8422;DHT22;4248;48.196;10.924;2022-12-24T13:25:49;10.80;64.90
8422;DHT22;4248;48.196;10.924;2022-12-24T13:28:16;10.80;65.10
8422;DHT22;4248;48.196;10.924;2022-12-24T13:30:42;10.80;65.10
8422;DHT22;4248;48.196;10.924;2022-12-24T13:33:12;10.80;65.00
8422;DHT22;4248;48.196;10.924;2022-12-24T13:35:57;10.80;65.00
8422;DHT22;4248;48.196;10.924;2022-12-24T13:40:52;10.80;64.90
8422;DHT22;4248;48.196;10.924;2022-12-24T13:43:17;10.70;65.10
8422;DHT22;4248;48.196;10.924;2022-12-24T13:45:48;10.60;65.00
8422;DHT22;4248;48.196;10.924;2022-12-24T13:50:54;10.60;64.90
8422;DHT22;4248;48.196;10.924;2022-12-24T13:53:40;10.50;64.90
8422;DHT22;4248;48.196;10.924;2022-12-24T13:56:18;10.50;64.90
8422;DHT22;4248;48.196;10.924;2022-12-24T13:58:54;10.50;64.90
8422;DHT22;4248;48.196;10.924;2022-12-24T14:01:32;10.40;64.80
8422;DHT22;4248;48.196;10.924;2022-12-24T14:04:01;10.30;64.70
8422;DHT22;4248;48.196;10.924;2022-12-24T14:06:31;10.30;64.70
8422;DHT22;4248;48.196;10.924;2022-12-24T14:09:06;10.30;64.70
8422;DHT22;4248;48.196;10.924;2022-12-24T14:14:38;10.30;64.70
8422;DHT22;4248;48.196;10.924;2022-12-24T14:17:21;10.40;64.80
8422;DHT22;4248;48.196;10.924;2022-12-24T14:19:51;10.50;64.30
8422;DHT22;4248;48.196;10.924;2022-12-24T14:22:37;10.50;64.10
8422;DHT22;4248;48.196;10.924;2022-12-24T14:25:18;10.60;63.90
8422;DHT22;4248;48.196;10.924;2022-12-24T14:28:03;10.70;63.70
8422;DHT22;4248;48.196;10.924;2022-12-24T14:30:30;10.70;63.50
8422;DHT22;4248;48.196;10.924;2022-12-24T14:32:56;10.80;63.10
8422;DHT22;4248;48.196;10.924;2022-12-24T14:35:48;10.80;62.80
8422;DHT22;4248;48.196;10.924;2022-12-24T14:38:15;10.80;62.60
8422;DHT22;4248;48.196;10.924;2022-12-24T14:46:43;10.70;62.80
8422;DHT22;4248;48.196;10.924;2022-12-24T14:54:45;10.70;62.90
8422;DHT22;4248;48.196;10.924;2022-12-24T14:57:17;10.60;62.90
8422;DHT22;4248;48.196;10.924;2022-12-24T14:59:54;10.40;63.10
8422;DHT22;4248;48.196;10.924;2022-12-24T15:02:39;10.30;63.50
8422;DHT22;4248;48.196;10.924;2022-12-24T15:05:18;10.10;64.10
8422;DHT22;4248;48.196;10.924;2022-12-24T15:07:54;9.90;65.20
8422;DHT22;4248;48.196;10.924;2022-12-24T15:10:35;9.80;65.20
8422;DHT22;4248;48.196;10.924;2022-12-24T15:13:16;9.60;65.20
8422;DHT22;4248;48.196;10.924;2022-12-24T15:15:47;9.50;65.70
8422;DHT22;4248;48.196;10.924;2022-12-24T15:18:17;9.40;65.70
8422;DHT22;4248;48.196;10.924;2022-12-24T15:20:46;9.30;65.90
8422;DHT22;4248;48.196;10.924;2022-12-24T15:23:25;9.20;66.20
8422;DHT22;4248;48.196;10.924;2022-12-24T15:25:51;9.10;66.50
8422;DHT22;4248;48.196;10.924;2022-12-24T15:28:22;9.00;66.50
8422;DHT22;4248;48.196;10.924;2022-12-24T15:30:47;9.00;66.60
8422;DHT22;4248;48.196;10.924;2022-12-24T15:33:13;9.00;66.70
8422;DHT22;4248;48.196;10.924;2022-12-24T15:38:24;9.00;66.70
8422;DHT22;4248;48.196;10.924;2022-12-24T15:40:50;9.00;66.60
8422;DHT22;4248;48.196;10.924;2022-12-24T15:43:16;9.00;66.50
8422;DHT22;4248;48.196;10.924;2022-12-24T15:45:43;9.00;66.50
8422;DHT22;4248;48.196;10.924;2022-12-24T15:48:13;9.00;66.40
8422;DHT22;4248;48.196;10.924;2022-12-24T15:50:46;9.00;66.40
8422;DHT22;4248;48.196;10.924;2022-12-24T15:53:29;9.00;66.60
8422;DHT22;4248;48.196;10.924;2022-12-24T15:58:37;8.90;66.80
8422;DHT22;4248;48.196;10.924;2022-12-24T16:03:54;8.90;66.80
8422;DHT22;4248;48.196;10.924;2022-12-24T16:06:21;8.90;66.90
8422;DHT22;4248;48.196;10.924;2022-12-24T16:08:48;8.90;66.90
8422;DHT22;4248;48.196;10.924;2022-12-24T16:11:24;8.90;66.80
8422;DHT22;4248;48.196;10.924;2022-12-24T16:16:41;8.90;66.60
8422;DHT22;4248;48.196;10.924;2022-12-24T16:19:20;9.00;66.50
8422;DHT22;4248;48.196;10.924;2022-12-24T16:21:51;9.00;66.40
8422;DHT22;4248;48.196;10.924;2022-12-24T16:24:23;9.00;66.40
8422;DHT22;4248;48.196;10.924;2022-12-24T16:26:50;9.00;66.50
8422;DHT22;4248;48.196;10.924;2022-12-24T16:29:16;9.00;66.40
8422;DHT22;4248;48.196;10.924;2022-12-24T16:31:54;9.00;66.40
8422;DHT22;4248;48.196;10.924;2022-12-24T16:34:23;9.00;67.50
8422;DHT22;4248;48.196;10.924;2022-12-24T16:36:49;9.00;66.50
8422;DHT22;4248;48.196;10.924;2022-12-24T16:39:19;9.00;66.50
8422;DHT22;4248;48.196;10.924;2022-12-24T16:41:49;9.00;66.50
8422;DHT22;4248;48.196;10.924;2022-12-24T16:44:34;9.00;66.50
8422;DHT22;4248;48.196;10.924;2022-12-24T16:46:59;8.90;66.60
8422;DHT22;4248;48.196;10.924;2022-12-24T16:49:26;8.90;66.80
8422;DHT22;4248;48.196;10.924;2022-12-24T16:51:52;8.90;67.00
8422;DHT22;4248;48.196;10.924;2022-12-24T16:54:18;8.90;67.00
8422;DHT22;4248;48.196;10.924;2022-12-24T16:56:43;8.90;67.00
8422;DHT22;4248;48.196;10.924;2022-12-24T16:59:18;8.90;67.00
8422;DHT22;4248;48.196;10.924;2022-12-24T17:01:44;8.90;67.00
8422;DHT22;4248;48.196;10.924;2022-12-24T17:04:11;8.90;66.90
8422;DHT22;4248;48.196;10.924;2022-12-24T17:06:39;8.90;66.70
8422;DHT22;4248;48.196;10.924;2022-12-24T17:09:06;8.90;66.70
8422;DHT22;4248;48.196;10.924;2022-12-24T17:11:32;8.90;66.60
8422;DHT22;4248;48.196;10.924;2022-12-24T17:13:58;8.90;66.70
8422;DHT22;4248;48.196;10.924;2022-12-24T17:16:23;8.90;66.60
8422;DHT22;4248;48.196;10.924;2022-12-24T17:18:49;9.00;66.50
8422;DHT22;4248;48.196;10.924;2022-12-24T17:21:16;9.00;66.40
8422;DHT22;4248;48.196;10.924;2022-12-24T17:23:42;9.00;66.40
8422;DHT22;4248;48.196;10.924;2022-12-24T17:26:12;9.00;66.50
8422;DHT22;4248;48.196;10.924;2022-12-24T17:28:39;9.00;66.40
8422;DHT22;4248;48.196;10.924;2022-12-24T17:31:09;9.00;66.50
8422;DHT22;4248;48.196;10.924;2022-12-24T17:33:35;9.00;66.50
8422;DHT22;4248;48.196;10.924;2022-12-24T17:36:01;9.00;66.60
8422;DHT22;4248;48.196;10.924;2022-12-24T17:38:27;9.00;66.50
8422;DHT22;4248;48.196;10.924;2022-12-24T17:41:01;9.10;66.40
8422;DHT22;4248;48.196;10.924;2022-12-24T17:43:27;9.10;66.40
8422;DHT22;4248;48.196;10.924;2022-12-24T17:45:53;9.10;66.50
8422;DHT22;4248;48.196;10.924;2022-12-24T17:48:18;9.10;66.60